Station History

Weather Underground - logo

Station Historical Data
Daily Summary for January 21, 2018 Units:  Both    English   Metric
« Previous Day
Next Day »
Daily Weekly Monthly Yearly Custom
  High: Low: Average:
Temperature: 57.2 °F /  14 °C 33.7 °F /  0.9 °C 43.4 °F /  6.3 °C
Dew Point: 42.0 °F /  5.6 °C 32.3 °F /  0.2 °C 37.7 °F /  3.2 °C
Humidity: 96 % 52 % 82 %
Wind Speed: 3.5 mph /  5.6 km/h - 0.3 mph /  0.5 km/h
Wind Gust: 3.5 mph /  5.6 km/h - -
Wind:- - WNW
Pressure: 30.43 in /  1030.4 hPa 30.31 in /  1026.3 hPa -
Precipitation: 0.01 in /  0.25 mm    
Historical Graphs
 
 
Tabular Data for January 21, 2018
Time Temperature Dew Point Pressure Wind Wind Speed Wind Gust Humidity Rainfall Rate (Hourly)
00:01 34.7 °F /  1.5 °C 33.2 °F /  0.7 °C 30.31 in /  1026.3 hPa Calm     94 % 0.00 in /  0 mm
00:06 34.8 °F /  1.6 °C 33.2 °F /  0.7 °C 30.31 in /  1026.3 hPa Calm     94 % 0.00 in /  0 mm
00:22 34.9 °F /  1.6 °C 33.6 °F /  0.9 °C 30.31 in /  1026.3 hPa Calm     95 % 0.00 in /  0 mm
00:27 35.0 °F /  1.7 °C 33.7 °F /  0.9 °C 30.31 in /  1026.3 hPa Calm     95 % 0.00 in /  0 mm
00:32 35.0 °F /  1.7 °C 33.7 °F /  0.9 °C 30.31 in /  1026.3 hPa Calm     95 % 0.00 in /  0 mm
00:37 34.9 °F /  1.6 °C 33.6 °F /  0.9 °C 30.31 in /  1026.3 hPa Calm     95 % 0.00 in /  0 mm
00:42 34.7 °F /  1.5 °C 33.4 °F /  0.8 °C 30.31 in /  1026.3 hPa Calm     95 % 0.00 in /  0 mm
00:47 34.8 °F /  1.6 °C 33.5 °F /  0.8 °C 30.31 in /  1026.3 hPa Calm     95 % 0.00 in /  0 mm
00:52 34.9 °F /  1.6 °C 33.6 °F /  0.9 °C 30.32 in /  1026.6 hPa Calm     95 % 0.00 in /  0 mm
00:57 34.8 °F /  1.6 °C 33.5 °F /  0.8 °C 30.32 in /  1026.6 hPa Calm     95 % 0.00 in /  0 mm
01:02 34.8 °F /  1.6 °C 33.2 °F /  0.7 °C 30.32 in /  1026.6 hPa Calm     94 % 0.00 in /  0 mm
01:07 34.7 °F /  1.5 °C 33.4 °F /  0.8 °C 30.32 in /  1026.6 hPa Calm     95 % 0.00 in /  0 mm
01:12 34.9 °F /  1.6 °C 33.6 °F /  0.9 °C 30.32 in /  1026.6 hPa Calm     95 % 0.00 in /  0 mm
01:17 35.1 °F /  1.7 °C 33.8 °F /  1 °C 30.32 in /  1026.6 hPa Calm     95 % 0.00 in /  0 mm
01:22 35.5 °F /  1.9 °C 34.2 °F /  1.2 °C 30.33 in /  1027 hPa Calm     95 % 0.00 in /  0 mm
01:27 35.7 °F /  2.1 °C 34.4 °F /  1.3 °C 30.33 in /  1027 hPa Calm     95 % 0.00 in /  0 mm
01:32 35.9 °F /  2.2 °C 34.6 °F /  1.4 °C 30.32 in /  1026.6 hPa Calm     95 % 0.00 in /  0 mm
01:37 35.9 °F /  2.2 °C 34.6 °F /  1.4 °C 30.32 in /  1026.6 hPa Calm     95 % 0.00 in /  0 mm
01:42 35.9 °F /  2.2 °C 34.6 °F /  1.4 °C 30.32 in /  1026.6 hPa Calm     95 % 0.00 in /  0 mm
01:47 36.0 °F /  2.2 °C 34.7 °F /  1.5 °C 30.32 in /  1026.6 hPa Calm     95 % 0.00 in /  0 mm
01:52 35.9 °F /  2.2 °C 34.6 °F /  1.4 °C 30.32 in /  1026.6 hPa Calm     95 % 0.00 in /  0 mm
01:57 36.0 °F /  2.2 °C 34.7 °F /  1.5 °C 30.33 in /  1027 hPa Calm     95 % 0.00 in /  0 mm
02:02 36.1 °F /  2.3 °C 34.8 °F /  1.6 °C 30.33 in /  1027 hPa Calm     95 % 0.00 in /  0 mm
02:07 36.0 °F /  2.2 °C 34.7 °F /  1.5 °C 30.33 in /  1027 hPa Calm     95 % 0.00 in /  0 mm
02:12 35.8 °F /  2.1 °C 34.5 °F /  1.4 °C 30.33 in /  1027 hPa Calm     95 % 0.00 in /  0 mm
02:17 35.6 °F /  2 °C 34.0 °F /  1.1 °C 30.33 in /  1027 hPa Calm     94 % 0.00 in /  0 mm
02:22 35.3 °F /  1.8 °C 33.7 °F /  0.9 °C 30.33 in /  1027 hPa Calm     94 % 0.00 in /  0 mm
02:28 35.2 °F /  1.8 °C 33.6 °F /  0.9 °C 30.33 in /  1027 hPa Calm     94 % 0.00 in /  0 mm
02:32 35.1 °F /  1.7 °C 33.5 °F /  0.8 °C 30.33 in /  1027 hPa Calm     94 % 0.00 in /  0 mm
02:38 35.0 °F /  1.7 °C 33.4 °F /  0.8 °C 30.33 in /  1027 hPa Calm     94 % 0.00 in /  0 mm
02:43 34.9 °F /  1.6 °C 33.3 °F /  0.7 °C 30.33 in /  1027 hPa Calm     94 % 0.00 in /  0 mm
02:48 35.0 °F /  1.7 °C 33.7 °F /  0.9 °C 30.33 in /  1027 hPa Calm     95 % 0.00 in /  0 mm
02:53 35.1 °F /  1.7 °C 33.8 °F /  1 °C 30.33 in /  1027 hPa Calm     95 % 0.00 in /  0 mm
02:58 35.3 °F /  1.8 °C 34.0 °F /  1.1 °C 30.34 in /  1027.3 hPa Calm     95 % 0.00 in /  0 mm
03:03 35.6 °F /  2 °C 34.3 °F /  1.3 °C 30.34 in /  1027.3 hPa Calm     95 % 0.00 in /  0 mm
03:08 35.8 °F /  2.1 °C 34.5 °F /  1.4 °C 30.34 in /  1027.3 hPa Calm     95 % 0.00 in /  0 mm
03:13 36.0 °F /  2.2 °C 34.7 °F /  1.5 °C 30.33 in /  1027 hPa Calm     95 % 0.00 in /  0 mm
03:18 36.1 °F /  2.3 °C 34.8 °F /  1.6 °C 30.33 in /  1027 hPa Calm     95 % 0.00 in /  0 mm
03:23 36.3 °F /  2.4 °C 35.0 °F /  1.7 °C 30.33 in /  1027 hPa Calm     95 % 0.00 in /  0 mm
03:28 36.4 °F /  2.4 °C 35.1 °F /  1.7 °C 30.33 in /  1027 hPa Calm     95 % 0.00 in /  0 mm
03:33 36.4 °F /  2.4 °C 35.1 °F /  1.7 °C 30.34 in /  1027.3 hPa Calm     95 % 0.01 in /  0.25 mm
03:38 36.5 °F /  2.5 °C 35.2 °F /  1.8 °C 30.34 in /  1027.3 hPa Calm     95 % 0.01 in /  0.25 mm
03:43 36.4 °F /  2.4 °C 35.1 °F /  1.7 °C 30.33 in /  1027 hPa Calm     95 % 0.01 in /  0.25 mm
03:44 36.4 °F /  2.4 °C 35.1 °F /  1.7 °C 30.34 in /  1027.3 hPa Calm     95 % 0.01 in /  0.25 mm
03:49 36.4 °F /  2.4 °C 35.1 °F /  1.7 °C 30.34 in /  1027.3 hPa Calm     95 % 0.01 in /  0.25 mm
03:55 36.3 °F /  2.4 °C 35.0 °F /  1.7 °C 30.34 in /  1027.3 hPa Calm     95 % 0.01 in /  0.25 mm
04:00 36.3 °F /  2.4 °C 35.0 °F /  1.7 °C 30.34 in /  1027.3 hPa Calm     95 % 0.01 in /  0.25 mm
04:05 36.3 °F /  2.4 °C 35.0 °F /  1.7 °C 30.34 in /  1027.3 hPa Calm     95 % 0.01 in /  0.25 mm
04:10 36.4 °F /  2.4 °C 35.1 °F /  1.7 °C 30.33 in /  1027 hPa Calm     95 % 0.01 in /  0.25 mm
04:15 36.5 °F /  2.5 °C 35.2 °F /  1.8 °C 30.33 in /  1027 hPa Calm     95 % 0.01 in /  0.25 mm
04:20 36.5 °F /  2.5 °C 34.9 °F /  1.6 °C 30.33 in /  1027 hPa Calm     94 % 0.01 in /  0.25 mm
04:25 36.4 °F /  2.4 °C 34.8 °F /  1.6 °C 30.33 in /  1027 hPa Calm     94 % 0.01 in /  0.25 mm
04:30 36.1 °F /  2.3 °C 34.5 °F /  1.4 °C 30.33 in /  1027 hPa Calm     94 % 0.01 in /  0.25 mm
04:35 35.9 °F /  2.2 °C 34.3 °F /  1.3 °C 30.33 in /  1027 hPa Calm     94 % 0.00 in /  0 mm
04:40 35.7 °F /  2.1 °C 34.1 °F /  1.2 °C 30.33 in /  1027 hPa Calm     94 % 0.00 in /  0 mm
04:45 35.6 °F /  2 °C 34.0 °F /  1.1 °C 30.33 in /  1027 hPa Calm     94 % 0.00 in /  0 mm
04:50 35.3 °F /  1.8 °C 33.7 °F /  0.9 °C 30.33 in /  1027 hPa Calm     94 % 0.00 in /  0 mm
04:55 35.4 °F /  1.9 °C 34.1 °F /  1.2 °C 30.33 in /  1027 hPa Calm     95 % 0.00 in /  0 mm
04:57 35.4 °F /  1.9 °C 34.1 °F /  1.2 °C 30.33 in /  1027 hPa Calm     95 % 0.00 in /  0 mm
05:02 35.4 °F /  1.9 °C 34.1 °F /  1.2 °C 30.33 in /  1027 hPa Calm     95 % 0.00 in /  0 mm
05:07 35.3 °F /  1.8 °C 34.0 °F /  1.1 °C 30.34 in /  1027.3 hPa Calm     95 % 0.00 in /  0 mm
05:12 34.9 °F /  1.6 °C 33.3 °F /  0.7 °C 30.34 in /  1027.3 hPa SE 1.2 mph /  1.9 km/h   94 % 0.00 in /  0 mm
05:17 34.5 °F /  1.4 °C 33.0 °F /  0.6 °C 30.34 in /  1027.3 hPa Calm     94 % 0.00 in /  0 mm
05:22 34.2 °F /  1.2 °C 32.7 °F /  0.4 °C 30.34 in /  1027.3 hPa Calm     94 % 0.00 in /  0 mm
05:27 34.0 °F /  1.1 °C 32.5 °F /  0.3 °C 30.34 in /  1027.3 hPa Calm     94 % 0.00 in /  0 mm
05:32 33.8 °F /  1 °C 32.3 °F /  0.2 °C 30.34 in /  1027.3 hPa Calm     94 % 0.00 in /  0 mm
05:37 33.8 °F /  1 °C 32.5 °F /  0.3 °C 30.34 in /  1027.3 hPa Calm     95 % 0.00 in /  0 mm
05:42 34.0 °F /  1.1 °C 32.7 °F /  0.4 °C 30.35 in /  1027.7 hPa Calm     95 % 0.00 in /  0 mm
05:47 34.0 °F /  1.1 °C 32.7 °F /  0.4 °C 30.35 in /  1027.7 hPa Calm     95 % 0.00 in /  0 mm
05:52 34.3 °F /  1.3 °C 33.0 °F /  0.6 °C 30.35 in /  1027.7 hPa Calm     95 % 0.00 in /  0 mm
05:58 34.1 °F /  1.2 °C 32.8 °F /  0.4 °C 30.35 in /  1027.7 hPa Calm     95 % 0.00 in /  0 mm
06:03 34.1 °F /  1.2 °C 32.8 °F /  0.4 °C 30.35 in /  1027.7 hPa Calm     95 % 0.00 in /  0 mm
06:08 34.3 °F /  1.3 °C 33.0 °F /  0.6 °C 30.36 in /  1028 hPa Calm     95 % 0.00 in /  0 mm
06:13 34.3 °F /  1.3 °C 33.0 °F /  0.6 °C 30.36 in /  1028 hPa Calm     95 % 0.00 in /  0 mm
06:18 34.5 °F /  1.4 °C 33.2 °F /  0.7 °C 30.36 in /  1028 hPa Calm     95 % 0.00 in /  0 mm
06:23 34.5 °F /  1.4 °C 33.2 °F /  0.7 °C 30.36 in /  1028 hPa Calm     95 % 0.00 in /  0 mm
06:28 34.6 °F /  1.4 °C 33.6 °F /  0.9 °C 30.36 in /  1028 hPa Calm     96 % 0.00 in /  0 mm
06:33 34.4 °F /  1.3 °C 33.1 °F /  0.6 °C 30.36 in /  1028 hPa Calm     95 % 0.00 in /  0 mm
06:38 34.3 °F /  1.3 °C 33.0 °F /  0.6 °C 30.36 in /  1028 hPa Calm     95 % 0.00 in /  0 mm
06:43 34.1 °F /  1.2 °C 32.8 °F /  0.4 °C 30.36 in /  1028 hPa Calm     95 % 0.00 in /  0 mm
06:48 34.0 °F /  1.1 °C 32.7 °F /  0.4 °C 30.36 in /  1028 hPa Calm     95 % 0.00 in /  0 mm
06:53 34.0 °F /  1.1 °C 32.7 °F /  0.4 °C 30.36 in /  1028 hPa Calm     95 % 0.00 in /  0 mm
06:58 33.8 °F /  1 °C 32.5 °F /  0.3 °C 30.36 in /  1028 hPa Calm     95 % 0.00 in /  0 mm
07:03 33.9 °F /  1.1 °C 32.6 °F /  0.3 °C 30.36 in /  1028 hPa Calm     95 % 0.00 in /  0 mm
07:08 33.7 °F /  0.9 °C 32.4 °F /  0.2 °C 30.36 in /  1028 hPa Calm     95 % 0.00 in /  0 mm
07:13 33.9 °F /  1.1 °C 32.6 °F /  0.3 °C 30.36 in /  1028 hPa Calm     95 % 0.00 in /  0 mm
07:18 33.8 °F /  1 °C 32.8 °F /  0.4 °C 30.37 in /  1028.3 hPa Calm     96 % 0.00 in /  0 mm
07:23 33.8 °F /  1 °C 32.5 °F /  0.3 °C 30.36 in /  1028 hPa Calm     95 % 0.00 in /  0 mm
07:28 33.8 °F /  1 °C 32.8 °F /  0.4 °C 30.36 in /  1028 hPa Calm     96 % 0.00 in /  0 mm
07:33 33.8 °F /  1 °C 32.8 °F /  0.4 °C 30.37 in /  1028.3 hPa Calm     96 % 0.00 in /  0 mm
07:38 34.0 °F /  1.1 °C 33.0 °F /  0.6 °C 30.37 in /  1028.3 hPa Calm     96 % 0.00 in /  0 mm
07:43 34.1 °F /  1.2 °C 33.1 °F /  0.6 °C 30.37 in /  1028.3 hPa Calm     96 % 0.00 in /  0 mm
07:48 34.3 °F /  1.3 °C 33.3 °F /  0.7 °C 30.37 in /  1028.3 hPa Calm     96 % 0.00 in /  0 mm
07:53 34.7 °F /  1.5 °C 33.7 °F /  0.9 °C 30.37 in /  1028.3 hPa Calm     96 % 0.00 in /  0 mm
07:58 35.1 °F /  1.7 °C 34.1 °F /  1.2 °C 30.38 in /  1028.7 hPa Calm     96 % 0.00 in /  0 mm
08:03 36.1 °F /  2.3 °C 35.1 °F /  1.7 °C 30.38 in /  1028.7 hPa Calm     96 % 0.00 in /  0 mm
08:09 37.3 °F /  2.9 °C 36.3 °F /  2.4 °C 30.38 in /  1028.7 hPa Calm     96 % 0.00 in /  0 mm
08:14 37.8 °F /  3.2 °C 36.8 °F /  2.7 °C 30.38 in /  1028.7 hPa Calm     96 % 0.00 in /  0 mm
08:18 38.3 °F /  3.5 °C 37.3 °F /  2.9 °C 30.39 in /  1029 hPa Calm     96 % 0.00 in /  0 mm
08:23 38.9 °F /  3.8 °C 37.9 °F /  3.3 °C 30.39 in /  1029 hPa Calm     96 % 0.00 in /  0 mm
08:28 39.1 °F /  3.9 °C 38.1 °F /  3.4 °C 30.39 in /  1029 hPa Calm     96 % 0.00 in /  0 mm
08:33 39.7 °F /  4.3 °C 38.7 °F /  3.7 °C 30.39 in /  1029 hPa Calm     96 % 0.00 in /  0 mm
08:38 40.2 °F /  4.6 °C 39.2 °F /  4 °C 30.40 in /  1029.3 hPa Calm     96 % 0.00 in /  0 mm
08:43 41.0 °F /  5 °C 39.9 °F /  4.4 °C 30.40 in /  1029.3 hPa Calm     96 % 0.00 in /  0 mm
08:48 41.2 °F /  5.1 °C 39.6 °F /  4.2 °C 30.40 in /  1029.3 hPa Calm     94 % 0.00 in /  0 mm
08:53 41.6 °F /  5.3 °C 40.0 °F /  4.4 °C 30.41 in /  1029.7 hPa Calm     94 % 0.00 in /  0 mm
08:58 42.2 °F /  5.7 °C 40.0 °F /  4.4 °C 30.41 in /  1029.7 hPa Calm     92 % 0.00 in /  0 mm
09:03 42.7 °F /  5.9 °C 40.0 °F /  4.4 °C 30.41 in /  1029.7 hPa Calm     90 % 0.00 in /  0 mm
09:08 43.3 °F /  6.3 °C 40.3 °F /  4.6 °C 30.41 in /  1029.7 hPa Calm     89 % 0.00 in /  0 mm
09:13 44.0 °F /  6.7 °C 40.4 °F /  4.7 °C 30.42 in /  1030 hPa Calm     87 % 0.00 in /  0 mm
09:18 44.6 °F /  7 °C 41.0 °F /  5 °C 30.42 in /  1030 hPa Calm     87 % 0.00 in /  0 mm
09:23 45.1 °F /  7.3 °C 41.5 °F /  5.3 °C 30.42 in /  1030 hPa Calm     87 % 0.00 in /  0 mm
09:28 45.6 °F /  7.6 °C 41.0 °F /  5 °C 30.42 in /  1030 hPa Calm     84 % 0.00 in /  0 mm
09:33 46.0 °F /  7.8 °C 40.8 °F /  4.9 °C 30.42 in /  1030 hPa NNW 1.2 mph /  1.9 km/h   82 % 0.00 in /  0 mm
09:34 46.1 °F /  7.8 °C 40.9 °F /  4.9 °C 30.42 in /  1030 hPa NNW 1.2 mph /  1.9 km/h   82 % 0.00 in /  0 mm
09:39 46.6 °F /  8.1 °C 41.4 °F /  5.2 °C 30.43 in /  1030.4 hPa Calm   0.1 mph /  0.2 km/h 82 % 0.00 in /  0 mm
09:44 46.9 °F /  8.3 °C 41.1 °F /  5.1 °C 30.43 in /  1030.4 hPa NW 1.2 mph /  1.9 km/h 1.2 mph /  1.9 km/h 80 % 0.00 in /  0 mm
09:49 47.2 °F /  8.4 °C 40.4 °F /  4.7 °C 30.43 in /  1030.4 hPa Calm     77 % 0.00 in /  0 mm
10:47 51.9 °F /  11.1 °C 42.0 °F /  5.6 °C 30.43 in /  1030.4 hPa Calm   0.1 mph /  0.2 km/h 69 % 0.00 in /  0 mm
10:52 52.0 °F /  11.1 °C 41.0 °F /  5 °C 30.43 in /  1030.4 hPa WNW 1.2 mph /  1.9 km/h   66 % 0.00 in /  0 mm
10:57 52.0 °F /  11.1 °C 40.6 °F /  4.8 °C 30.42 in /  1030 hPa NW 1.2 mph /  1.9 km/h 1.2 mph /  1.9 km/h 65 % 0.00 in /  0 mm
11:02 52.1 °F /  11.2 °C 40.7 °F /  4.8 °C 30.43 in /  1030.4 hPa Calm     65 % 0.00 in /  0 mm
11:07 52.6 °F /  11.4 °C 41.9 °F /  5.5 °C 30.43 in /  1030.4 hPa Calm     67 % 0.00 in /  0 mm
11:12 52.6 °F /  11.4 °C 41.2 °F /  5.1 °C 30.42 in /  1030 hPa Calm     65 % 0.00 in /  0 mm
11:17 52.4 °F /  11.3 °C 41.0 °F /  5 °C 30.42 in /  1030 hPa NNW 2.3 mph /  3.7 km/h 2.3 mph /  3.7 km/h 65 % 0.00 in /  0 mm
11:22 53.1 °F /  11.7 °C 41.2 °F /  5.1 °C 30.42 in /  1030 hPa Calm     64 % 0.00 in /  0 mm
11:27 53.2 °F /  11.8 °C 40.5 °F /  4.7 °C 30.42 in /  1030 hPa NNW 1.2 mph /  1.9 km/h   62 % 0.00 in /  0 mm
11:32 53.3 °F /  11.8 °C 40.6 °F /  4.8 °C 30.42 in /  1030 hPa NW 1.2 mph /  1.9 km/h 1.2 mph /  1.9 km/h 62 % 0.00 in /  0 mm
11:37 53.2 °F /  11.8 °C 40.5 °F /  4.7 °C 30.41 in /  1029.7 hPa WNW 1.2 mph /  1.9 km/h 1.2 mph /  1.9 km/h 62 % 0.00 in /  0 mm
11:42 53.3 °F /  11.8 °C 41.0 °F /  5 °C 30.41 in /  1029.7 hPa Calm     63 % 0.00 in /  0 mm
11:47 53.6 °F /  12 °C 40.9 °F /  4.9 °C 30.41 in /  1029.7 hPa NW 1.0 mph /  1.6 km/h 1.0 mph /  1.6 km/h 62 % 0.00 in /  0 mm
11:52 53.6 °F /  12 °C 40.9 °F /  4.9 °C 30.41 in /  1029.7 hPa Calm     62 % 0.00 in /  0 mm
11:57 53.7 °F /  12.1 °C 41.4 °F /  5.2 °C 30.41 in /  1029.7 hPa NW 3.0 mph /  4.8 km/h 3.0 mph /  4.8 km/h 63 % 0.00 in /  0 mm
12:02 53.7 °F /  12.1 °C 41.8 °F /  5.4 °C 30.41 in /  1029.7 hPa Calm     64 % 0.00 in /  0 mm
12:07 54.0 °F /  12.2 °C 41.3 °F /  5.2 °C 30.40 in /  1029.3 hPa Calm     62 % 0.00 in /  0 mm
12:12 54.0 °F /  12.2 °C 40.8 °F /  4.9 °C 30.40 in /  1029.3 hPa WNW 1.2 mph /  1.9 km/h 1.2 mph /  1.9 km/h 61 % 0.00 in /  0 mm
12:17 53.9 °F /  12.2 °C 40.8 °F /  4.9 °C 30.40 in /  1029.3 hPa WNW 2.3 mph /  3.7 km/h 2.3 mph /  3.7 km/h 61 % 0.00 in /  0 mm
12:22 54.0 °F /  12.2 °C 40.8 °F /  4.9 °C 30.40 in /  1029.3 hPa NW 2.3 mph /  3.7 km/h 2.3 mph /  3.7 km/h 61 % 0.00 in /  0 mm
12:27 54.3 °F /  12.4 °C 40.3 °F /  4.6 °C 30.39 in /  1029 hPa WNW 1.2 mph /  1.9 km/h 1.2 mph /  1.9 km/h 59 % 0.00 in /  0 mm
12:32 54.4 °F /  12.4 °C 40.4 °F /  4.7 °C 30.39 in /  1029 hPa North 2.3 mph /  3.7 km/h 2.3 mph /  3.7 km/h 59 % 0.00 in /  0 mm
12:42 54.7 °F /  12.6 °C 40.6 °F /  4.8 °C 30.39 in /  1029 hPa Calm     59 % 0.00 in /  0 mm
12:47 55.0 °F /  12.8 °C 40.5 °F /  4.7 °C 30.39 in /  1029 hPa NW 1.2 mph /  1.9 km/h 1.2 mph /  1.9 km/h 58 % 0.00 in /  0 mm
12:52 55.0 °F /  12.8 °C 40.5 °F /  4.7 °C 30.38 in /  1028.7 hPa West 2.3 mph /  3.7 km/h 2.3 mph /  3.7 km/h 58 % 0.00 in /  0 mm
12:57 55.2 °F /  12.9 °C 39.8 °F /  4.3 °C 30.38 in /  1028.7 hPa NW 1.2 mph /  1.9 km/h 1.2 mph /  1.9 km/h 56 % 0.00 in /  0 mm
13:02 55.6 °F /  13.1 °C 39.7 °F /  4.3 °C 30.37 in /  1028.3 hPa SSE 2.3 mph /  3.7 km/h 2.3 mph /  3.7 km/h 55 % 0.00 in /  0 mm
13:07 55.7 °F /  13.2 °C 40.7 °F /  4.8 °C 30.38 in /  1028.7 hPa NW 1.2 mph /  1.9 km/h 1.2 mph /  1.9 km/h 57 % 0.00 in /  0 mm
13:12 56.1 °F /  13.4 °C 40.1 °F /  4.5 °C 30.37 in /  1028.3 hPa Calm     55 % 0.00 in /  0 mm
13:17 56.4 °F /  13.6 °C 40.0 °F /  4.4 °C 30.37 in /  1028.3 hPa NW 1.2 mph /  1.9 km/h 1.2 mph /  1.9 km/h 54 % 0.00 in /  0 mm
13:22 56.6 °F /  13.7 °C 41.5 °F /  5.3 °C 30.36 in /  1028 hPa SE 2.3 mph /  3.7 km/h 2.3 mph /  3.7 km/h 57 % 0.00 in /  0 mm
13:27 57.0 °F /  13.9 °C 40.5 °F /  4.7 °C 30.36 in /  1028 hPa NW 2.3 mph /  3.7 km/h 2.3 mph /  3.7 km/h 54 % 0.00 in /  0 mm
13:32 56.9 °F /  13.8 °C 39.4 °F /  4.1 °C 30.36 in /  1028 hPa ENE 2.3 mph /  3.7 km/h   52 % 0.00 in /  0 mm
13:37 57.0 °F /  13.9 °C 39.5 °F /  4.2 °C 30.36 in /  1028 hPa North 1.0 mph /  1.6 km/h 1.0 mph /  1.6 km/h 52 % 0.00 in /  0 mm
13:48 57.1 °F /  13.9 °C 40.1 °F /  4.5 °C 30.36 in /  1028 hPa SSE 2.3 mph /  3.7 km/h 2.3 mph /  3.7 km/h 53 % 0.00 in /  0 mm
13:52 57.2 °F /  14 °C 40.2 °F /  4.6 °C 30.36 in /  1028 hPa North 1.0 mph /  1.6 km/h 1.0 mph /  1.6 km/h 53 % 0.00 in /  0 mm
13:58 56.6 °F /  13.7 °C 39.2 °F /  4 °C 30.36 in /  1028 hPa Calm     52 % 0.00 in /  0 mm
14:03 56.4 °F /  13.6 °C 40.0 °F /  4.4 °C 30.35 in /  1027.7 hPa SSW 3.5 mph /  5.6 km/h 3.5 mph /  5.6 km/h 54 % 0.00 in /  0 mm
14:08 56.7 °F /  13.7 °C 39.7 °F /  4.3 °C 30.36 in /  1028 hPa NW 2.0 mph /  3.2 km/h 2.0 mph /  3.2 km/h 53 % 0.00 in /  0 mm
14:12 56.2 °F /  13.4 °C 39.8 °F /  4.3 °C 30.36 in /  1028 hPa WSW 1.2 mph /  1.9 km/h 1.2 mph /  1.9 km/h 54 % 0.00 in /  0 mm
14:17 56.1 °F /  13.4 °C 39.7 °F /  4.3 °C 30.35 in /  1027.7 hPa SW 1.2 mph /  1.9 km/h 1.2 mph /  1.9 km/h 54 % 0.00 in /  0 mm
14:22 56.1 °F /  13.4 °C 39.7 °F /  4.3 °C 30.35 in /  1027.7 hPa NW 2.3 mph /  3.7 km/h 2.3 mph /  3.7 km/h 54 % 0.00 in /  0 mm
14:27 56.0 °F /  13.3 °C 39.6 °F /  4.2 °C 30.35 in /  1027.7 hPa WNW 3.5 mph /  5.6 km/h 3.5 mph /  5.6 km/h 54 % 0.00 in /  0 mm
14:32 56.2 °F /  13.4 °C 39.8 °F /  4.3 °C 30.35 in /  1027.7 hPa Calm     54 % 0.00 in /  0 mm
14:37 56.3 °F /  13.5 °C 38.9 °F /  3.8 °C 30.35 in /  1027.7 hPa Calm     52 % 0.00 in /  0 mm
14:47 56.1 °F /  13.4 °C 39.2 °F /  4 °C 30.35 in /  1027.7 hPa NNW 1.2 mph /  1.9 km/h   53 % 0.00 in /  0 mm
14:52 56.0 °F /  13.3 °C 39.6 °F /  4.2 °C 30.35 in /  1027.7 hPa South 1.2 mph /  1.9 km/h 1.2 mph /  1.9 km/h 54 % 0.00 in /  0 mm
14:57 56.1 °F /  13.4 °C 39.7 °F /  4.3 °C 30.35 in /  1027.7 hPa Calm   0.2 mph /  0.3 km/h 54 % 0.00 in /  0 mm
15:07 55.9 °F /  13.3 °C 40.0 °F /  4.4 °C 30.35 in /  1027.7 hPa WSW 1.2 mph /  1.9 km/h   55 % 0.00 in /  0 mm
15:12 55.7 °F /  13.2 °C 40.2 °F /  4.6 °C 30.35 in /  1027.7 hPa NW 1.0 mph /  1.6 km/h 1.0 mph /  1.6 km/h 56 % 0.00 in /  0 mm
15:17 55.4 °F /  13 °C 40.0 °F /  4.4 °C 30.36 in /  1028 hPa Calm     56 % 0.00 in /  0 mm
15:22 55.4 °F /  13 °C 40.0 °F /  4.4 °C 30.35 in /  1027.7 hPa NW 2.3 mph /  3.7 km/h 2.3 mph /  3.7 km/h 56 % 0.00 in /  0 mm
15:27 55.2 °F /  12.9 °C 39.3 °F /  4.1 °C 30.35 in /  1027.7 hPa WNW 1.2 mph /  1.9 km/h 1.3 mph /  2.1 km/h 55 % 0.00 in /  0 mm
15:32 55.0 °F /  12.8 °C 39.6 °F /  4.2 °C 30.35 in /  1027.7 hPa Calm     56 % 0.00 in /  0 mm
15:42 54.9 °F /  12.7 °C 39.9 °F /  4.4 °C 30.36 in /  1028 hPa NW 2.3 mph /  3.7 km/h 2.3 mph /  3.7 km/h 57 % 0.00 in /  0 mm
15:47 54.9 °F /  12.7 °C 40.4 °F /  4.7 °C 30.36 in /  1028 hPa Calm     58 % 0.00 in /  0 mm
15:52 54.8 °F /  12.7 °C 40.3 °F /  4.6 °C 30.36 in /  1028 hPa Calm     58 % 0.00 in /  0 mm
15:57 54.8 °F /  12.7 °C 39.8 °F /  4.3 °C 30.36 in /  1028 hPa NW 2.3 mph /  3.7 km/h 2.3 mph /  3.7 km/h 57 % 0.00 in /  0 mm
16:02 54.6 °F /  12.6 °C 39.7 °F /  4.3 °C 30.36 in /  1028 hPa Calm     57 % 0.00 in /  0 mm
16:07 54.5 °F /  12.5 °C 38.7 °F /  3.7 °C 30.36 in /  1028 hPa Calm     55 % 0.00 in /  0 mm
16:12 54.4 °F /  12.4 °C 39.5 °F /  4.2 °C 30.36 in /  1028 hPa Calm     57 % 0.00 in /  0 mm
16:17 54.3 °F /  12.4 °C 39.8 °F /  4.3 °C 30.36 in /  1028 hPa Calm     58 % 0.00 in /  0 mm
16:22 54.1 °F /  12.3 °C 39.6 °F /  4.2 °C 30.36 in /  1028 hPa Calm     58 % 0.00 in /  0 mm
16:27 53.9 °F /  12.2 °C 40.3 °F /  4.6 °C 30.36 in /  1028 hPa WNW 3.5 mph /  5.6 km/h 3.5 mph /  5.6 km/h 60 % 0.00 in /  0 mm
16:32 53.6 °F /  12 °C 40.5 °F /  4.7 °C 30.36 in /  1028 hPa NW 2.3 mph /  3.7 km/h   61 % 0.00 in /  0 mm
16:37 53.3 °F /  11.8 °C 40.6 °F /  4.8 °C 30.36 in /  1028 hPa Calm     62 % 0.00 in /  0 mm
16:42 53.0 °F /  11.7 °C 41.1 °F /  5.1 °C 30.36 in /  1028 hPa Calm     64 % 0.00 in /  0 mm
16:47 52.6 °F /  11.4 °C 41.2 °F /  5.1 °C 30.36 in /  1028 hPa Calm     65 % 0.00 in /  0 mm
16:52 52.0 °F /  11.1 °C 41.4 °F /  5.2 °C 30.37 in /  1028.3 hPa Calm     67 % 0.00 in /  0 mm
16:57 51.4 °F /  10.8 °C 41.2 °F /  5.1 °C 30.36 in /  1028 hPa Calm     68 % 0.00 in /  0 mm
17:02 51.1 °F /  10.6 °C 40.9 °F /  4.9 °C 30.36 in /  1028 hPa Calm     68 % 0.00 in /  0 mm
17:07 50.8 °F /  10.4 °C 41.0 °F /  5 °C 30.37 in /  1028.3 hPa Calm     69 % 0.00 in /  0 mm
17:12 50.5 °F /  10.3 °C 40.7 °F /  4.8 °C 30.37 in /  1028.3 hPa Calm     69 % 0.00 in /  0 mm
17:17 50.2 °F /  10.1 °C 40.4 °F /  4.7 °C 30.37 in /  1028.3 hPa Calm     69 % 0.00 in /  0 mm
17:22 49.9 °F /  9.9 °C 40.5 °F /  4.7 °C 30.37 in /  1028.3 hPa Calm     70 % 0.00 in /  0 mm
17:27 49.6 °F /  9.8 °C 40.6 °F /  4.8 °C 30.37 in /  1028.3 hPa Calm     71 % 0.00 in /  0 mm
17:32 49.1 °F /  9.5 °C 40.5 °F /  4.7 °C 30.37 in /  1028.3 hPa Calm     72 % 0.00 in /  0 mm
17:37 48.7 °F /  9.3 °C 40.8 °F /  4.9 °C 30.37 in /  1028.3 hPa Calm     74 % 0.00 in /  0 mm
17:42 48.2 °F /  9 °C 40.3 °F /  4.6 °C 30.37 in /  1028.3 hPa Calm     74 % 0.00 in /  0 mm
17:47 47.7 °F /  8.7 °C 40.2 °F /  4.6 °C 30.37 in /  1028.3 hPa Calm     75 % 0.00 in /  0 mm
17:53 47.4 °F /  8.6 °C 40.6 °F /  4.8 °C 30.38 in /  1028.7 hPa Calm     77 % 0.00 in /  0 mm
17:58 47.0 °F /  8.3 °C 40.2 °F /  4.6 °C 30.38 in /  1028.7 hPa Calm     77 % 0.00 in /  0 mm
18:03 46.6 °F /  8.1 °C 40.1 °F /  4.5 °C 30.38 in /  1028.7 hPa Calm     78 % 0.00 in /  0 mm
18:08 46.2 °F /  7.9 °C 40.0 °F /  4.4 °C 30.38 in /  1028.7 hPa Calm     79 % 0.00 in /  0 mm
18:13 46.0 °F /  7.8 °C 40.2 °F /  4.6 °C 30.38 in /  1028.7 hPa Calm     80 % 0.00 in /  0 mm
18:18 45.7 °F /  7.6 °C 39.9 °F /  4.4 °C 30.38 in /  1028.7 hPa Calm     80 % 0.00 in /  0 mm
18:23 45.7 °F /  7.6 °C 40.2 °F /  4.6 °C 30.38 in /  1028.7 hPa Calm     81 % 0.00 in /  0 mm
18:28 46.0 °F /  7.8 °C 40.2 °F /  4.6 °C 30.38 in /  1028.7 hPa Calm     80 % 0.00 in /  0 mm
18:33 46.1 °F /  7.8 °C 40.3 °F /  4.6 °C 30.38 in /  1028.7 hPa Calm     80 % 0.00 in /  0 mm
18:38 45.8 °F /  7.7 °C 40.3 °F /  4.6 °C 30.38 in /  1028.7 hPa Calm     81 % 0.00 in /  0 mm
18:43 45.5 °F /  7.5 °C 40.0 °F /  4.4 °C 30.38 in /  1028.7 hPa Calm     81 % 0.00 in /  0 mm
18:48 45.2 °F /  7.3 °C 40.0 °F /  4.4 °C 30.38 in /  1028.7 hPa Calm     82 % 0.00 in /  0 mm
18:53 45.0 °F /  7.2 °C 39.8 °F /  4.3 °C 30.39 in /  1029 hPa Calm     82 % 0.00 in /  0 mm
18:58 45.0 °F /  7.2 °C 40.1 °F /  4.5 °C 30.38 in /  1028.7 hPa Calm     83 % 0.00 in /  0 mm
19:03 45.1 °F /  7.3 °C 40.2 °F /  4.6 °C 30.39 in /  1029 hPa Calm     83 % 0.00 in /  0 mm
19:08 45.0 °F /  7.2 °C 40.1 °F /  4.5 °C 30.39 in /  1029 hPa Calm     83 % 0.00 in /  0 mm
19:13 44.7 °F /  7.1 °C 40.2 °F /  4.6 °C 30.39 in /  1029 hPa Calm     84 % 0.00 in /  0 mm
19:18 44.5 °F /  6.9 °C 40.0 °F /  4.4 °C 30.39 in /  1029 hPa Calm     84 % 0.00 in /  0 mm
19:23 44.5 °F /  6.9 °C 40.3 °F /  4.6 °C 30.39 in /  1029 hPa Calm     85 % 0.00 in /  0 mm
19:33 44.2 °F /  6.8 °C 40.0 °F /  4.4 °C 30.39 in /  1029 hPa Calm     85 % 0.00 in /  0 mm
19:38 44.0 °F /  6.7 °C 39.8 °F /  4.3 °C 30.39 in /  1029 hPa Calm     85 % 0.00 in /  0 mm
19:43 43.9 °F /  6.6 °C 40.0 °F /  4.4 °C 30.40 in /  1029.3 hPa Calm     86 % 0.00 in /  0 mm
19:48 44.0 °F /  6.7 °C 40.4 °F /  4.7 °C 30.39 in /  1029 hPa Calm     87 % 0.00 in /  0 mm
19:53 44.1 °F /  6.7 °C 40.5 °F /  4.7 °C 30.40 in /  1029.3 hPa Calm     87 % 0.00 in /  0 mm
19:58 44.1 °F /  6.7 °C 40.5 °F /  4.7 °C 30.40 in /  1029.3 hPa Calm     87 % 0.00 in /  0 mm
20:08 44.2 °F /  6.8 °C 40.9 °F /  4.9 °C 30.40 in /  1029.3 hPa Calm     88 % 0.00 in /  0 mm
20:13 44.2 °F /  6.8 °C 40.9 °F /  4.9 °C 30.40 in /  1029.3 hPa Calm     88 % 0.00 in /  0 mm
20:28 44.3 °F /  6.8 °C 41.0 °F /  5 °C 30.40 in /  1029.3 hPa Calm     88 % 0.00 in /  0 mm
20:33 44.3 °F /  6.8 °C 41.0 °F /  5 °C 30.40 in /  1029.3 hPa Calm     88 % 0.00 in /  0 mm
20:38 44.5 °F /  6.9 °C 41.2 °F /  5.1 °C 30.40 in /  1029.3 hPa Calm     88 % 0.00 in /  0 mm
20:43 44.7 °F /  7.1 °C 40.8 °F /  4.9 °C 30.40 in /  1029.3 hPa Calm     86 % 0.00 in /  0 mm
20:48 44.9 °F /  7.2 °C 41.3 °F /  5.2 °C 30.40 in /  1029.3 hPa Calm     87 % 0.00 in /  0 mm
20:53 45.0 °F /  7.2 °C 41.1 °F /  5.1 °C 30.40 in /  1029.3 hPa Calm     86 % 0.00 in /  0 mm
20:58 45.0 °F /  7.2 °C 41.1 °F /  5.1 °C 30.40 in /  1029.3 hPa Calm     86 % 0.00 in /  0 mm
21:18 44.0 °F /  6.7 °C 41.0 °F /  5 °C 30.41 in /  1029.7 hPa Calm     89 % 0.00 in /  0 mm
21:23 43.5 °F /  6.4 °C 40.5 °F /  4.7 °C 30.41 in /  1029.7 hPa Calm     89 % 0.00 in /  0 mm
21:28 43.3 °F /  6.3 °C 40.3 °F /  4.6 °C 30.41 in /  1029.7 hPa Calm     89 % 0.00 in /  0 mm
21:38 42.7 °F /  5.9 °C 39.7 °F /  4.3 °C 30.41 in /  1029.7 hPa Calm     89 % 0.00 in /  0 mm
21:43 42.5 °F /  5.8 °C 39.8 °F /  4.3 °C 30.42 in /  1030 hPa Calm     90 % 0.00 in /  0 mm
21:48 42.3 °F /  5.7 °C 39.6 °F /  4.2 °C 30.41 in /  1029.7 hPa Calm     90 % 0.00 in /  0 mm
21:53 42.0 °F /  5.6 °C 39.3 °F /  4.1 °C 30.42 in /  1030 hPa Calm     90 % 0.00 in /  0 mm
21:58 41.8 °F /  5.4 °C 39.4 °F /  4.1 °C 30.42 in /  1030 hPa Calm     91 % 0.00 in /  0 mm
22:09 41.6 °F /  5.3 °C 39.2 °F /  4 °C 30.42 in /  1030 hPa Calm     91 % 0.00 in /  0 mm
22:14 41.5 °F /  5.3 °C 39.1 °F /  3.9 °C 30.42 in /  1030 hPa Calm     91 % 0.00 in /  0 mm
22:19 41.3 °F /  5.2 °C 38.9 °F /  3.8 °C 30.42 in /  1030 hPa Calm     91 % 0.00 in /  0 mm
22:24 41.2 °F /  5.1 °C 39.1 °F /  3.9 °C 30.42 in /  1030 hPa Calm     92 % 0.00 in /  0 mm
22:29 41.0 °F /  5 °C 38.6 °F /  3.7 °C 30.42 in /  1030 hPa Calm     91 % 0.00 in /  0 mm
22:34 40.7 °F /  4.8 °C 38.3 °F /  3.5 °C 30.42 in /  1030 hPa Calm     91 % 0.00 in /  0 mm
22:39 40.5 °F /  4.7 °C 38.1 °F /  3.4 °C 30.42 in /  1030 hPa Calm     91 % 0.00 in /  0 mm
22:44 40.3 °F /  4.6 °C 38.2 °F /  3.4 °C 30.42 in /  1030 hPa Calm     92 % 0.00 in /  0 mm
22:49 40.0 °F /  4.4 °C 37.9 °F /  3.3 °C 30.42 in /  1030 hPa Calm     92 % 0.00 in /  0 mm
22:54 39.9 °F /  4.4 °C 37.8 °F /  3.2 °C 30.42 in /  1030 hPa Calm     92 % 0.00 in /  0 mm
22:59 39.7 °F /  4.3 °C 37.6 °F /  3.1 °C 30.42 in /  1030 hPa Calm     92 % 0.00 in /  0 mm
23:04 39.7 °F /  4.3 °C 37.8 °F /  3.2 °C 30.42 in /  1030 hPa Calm     93 % 0.00 in /  0 mm
23:09 39.7 °F /  4.3 °C 37.8 °F /  3.2 °C 30.41 in /  1029.7 hPa Calm     93 % 0.00 in /  0 mm
23:14 39.5 °F /  4.2 °C 37.4 °F /  3 °C 30.41 in /  1029.7 hPa Calm     92 % 0.00 in /  0 mm
23:19 39.3 °F /  4.1 °C 37.4 °F /  3 °C 30.41 in /  1029.7 hPa Calm     93 % 0.00 in /  0 mm
23:24 39.3 °F /  4.1 °C 37.4 °F /  3 °C 30.41 in /  1029.7 hPa Calm     93 % 0.00 in /  0 mm
23:29 39.3 °F /  4.1 °C 37.4 °F /  3 °C 30.41 in /  1029.7 hPa Calm     93 % 0.00 in /  0 mm
23:34 38.8 °F /  3.8 °C 36.7 °F /  2.6 °C 30.41 in /  1029.7 hPa Calm     92 % 0.00 in /  0 mm
23:39 38.6 °F /  3.7 °C 36.8 °F /  2.7 °C 30.41 in /  1029.7 hPa Calm     93 % 0.00 in /  0 mm
23:49 38.6 °F /  3.7 °C 36.8 °F /  2.7 °C 30.41 in /  1029.7 hPa Calm     93 % 0.00 in /  0 mm
23:54 38.5 °F /  3.6 °C 36.7 °F /  2.6 °C 30.41 in /  1029.7 hPa Calm     93 % 0.00 in /  0 mm
23:59 38.4 °F /  3.6 °C 36.6 °F /  2.6 °C 30.41 in /  1029.7 hPa Calm     93 % 0.00 in /  0 mm
Park Place, Exeter, Tulare County, California, USA
Compliments of Weather Underground - 2.5 mb